Station: EHBK - 21/02/2020 21:55Z (il y a 9 minutes)
EHBK 212155Z AUTO 22017KT 9999 OVC032 07/02 Q1024
Vent du 220º - 17 kt
Visibilité > 10 km
Ciel couvert à 3200 pieds
Température: +07ºC - Point de rosée: +02ºC - QNH: 1024 hPa